Main page
METAR-TAF:

METAR-TAF

Airports :

Chièvres Air Base

Chièvres, Belgium

latitude: 50-34N, longitude: 003-50E, elevation: 60 m

Current weather observation

The report was made 41 minutes ago, at 08:25 UTC
Wind 3 kt from the South
Temperature 17°C
Humidity 72%
Pressure 1029 hPa
Visibility 10 km or more

METAR: EBCV 210825Z AUTO 19003KT 9999 NCD 17/12 Q1029 BLU

Time: 11:06 (09:06 UTC)

Forecast

The report was made 3 hours and 25 minutes ago, at 05:41 UTC
Forecast valid from 21 at 07 UTC to 21 at 16 UTC
Wind 2 kt from variable directions
Visibility 10 km or more
Few clouds at a height of 3500 ft
Scattered clouds at a height of 22000 ft
Temporary
from 21 at 07 UTC to 21 at 12 UTC
Wind 5 kt from the South

TAF: EBCV 210541Z 2107/2116 VRB02KT 9999 FEW035 SCT220 TEMPO 2107/2112 18005KT BY EBWM

Weather observations and forecasts of more than 4000 airports (METAR and TAF reports).

The available stations are represented by yellow and red dots on the map.

Hover mouse over dot to see the name of the station.

Then click to see weather observations and forecasts.

To change the map : click on the green buttons with a black cross to zoom in, on the green button with a dash to zoom out, or on the green arrows for adjacent maps.


METAR-TAF: